Truth Or Consequences, New Mexico
Current Conditions -  °F | °C
As of 10:53 PM on Sunday 23 Nov 2014 (Local Time) from KTCS Reporting Station
Clear Clear  
Wind Chill: 35°   Ceiling: Unl
Heat Index: 42°   Visibility: 10mi
Dew Point: -2°   Wind: 13mph
Humidity: 16%   Direction: 320°NW
Pressure: 30.09"   Gusts: NA
Location:  33.13°N, 107.25°W
Report Text: KTCS 240553Z AUTO 32011KT 10SM CLR 06/M19 A3009 RMK AO2 PK WND 31027/0454 SLP154 T00561189 10100 20050 51017 TSNO
Loading
Personal Weather Stations






























Interactive Weather Map New forecast layout! Learn more

10-Day Weather Forecast

Advertisements
Track Severe Weather on mobile